Time;durP1;ratioP1;P1;durP2;ratioP2;P2;SDS_P1;SDS_P2;PMS_P1;PMS_P2;Temp;Humidity;BMP_temperature;BMP_pressure;BME280_temperature;BME280_humidity;BME280_pressure;Samples;Min_cycle;Max_cycle;Signal;HPM_P1;HPM_P2
2023/07/05 00:00:44;;;;;;;13.00;6.78;;;17.10;99.90;;;-144.05;70.52;56848.84;5035100;28;20033;-86
2023/07/05 00:03:10;;;;;;;10.68;6.90;;;17.10;99.90;;;-144.05;71.05;56863.69;5035152;28;20025;-85
2023/07/05 00:05:37;;;;;;;16.85;7.00;;;17.10;99.90;;;-144.05;71.84;56846.72;5035226;28;20214;-86
2023/07/05 00:08:08;;;;;;;10.55;6.68;;;17.10;99.90;;;-144.05;72.91;56853.09;5035029;28;20473;-86
2023/07/05 00:10:39;;;;;;;14.52;7.10;;;17.00;99.90;;;-144.05;73.65;56870.06;5035343;28;20029;-87
2023/07/05 00:13:25;;;;;;;15.55;5.90;;;17.00;99.90;;;-144.05;74.46;56838.22;5034912;28;20029;-87
2023/07/05 00:15:51;;;;;;;10.55;6.03;;;17.00;99.90;;;-144.05;75.27;56865.81;5034892;28;20029;-86
2023/07/05 00:18:22;;;;;;;10.18;5.05;;;17.00;99.90;;;-144.05;75.24;56857.34;5052701;28;20067;-87
2023/07/05 00:21:01;;;;;;;8.18;4.75;;;16.90;99.90;;;-144.05;75.88;56863.69;5034743;28;20033;-87
2023/07/05 00:23:29;;;;;;;8.45;4.35;;;17.00;99.90;;;-144.05;76.26;56857.34;5034657;28;20027;-87
2023/07/05 00:25:55;;;;;;;9.05;3.83;;;17.00;99.90;;;-144.05;76.53;56855.22;5034832;28;20480;-86
2023/07/05 00:28:21;;;;;;;8.10;4.43;;;17.00;99.90;;;-144.05;76.89;56844.59;5035159;28;20385;-88
2023/07/05 00:30:47;;;;;;;7.05;4.57;;;16.90;99.90;;;-144.05;76.65;56842.47;5041682;28;20033;-85
2023/07/05 00:33:13;;;;;;;9.90;3.97;;;16.90;99.90;;;-144.05;77.44;56846.72;5059686;28;20040;-85
2023/07/05 00:35:52;;;;;;;7.03;3.80;;;16.90;99.90;;;-144.05;77.55;56848.84;5035856;28;20028;-87
2023/07/05 00:38:20;;;;;;;5.75;3.80;;;16.90;99.90;;;-144.05;77.00;56857.34;5034689;28;20666;-88
2023/07/05 00:40:48;;;;;;;5.50;3.85;;;16.90;99.90;;;-144.05;77.27;56831.84;5034304;28;20119;-86
2023/07/05 00:43:17;;;;;;;6.50;3.88;;;16.90;99.90;;;-144.05;77.47;56861.56;5034660;28;20106;-86
2023/07/05 00:45:56;;;;;;;6.43;3.75;;;16.90;99.90;;;-144.05;77.83;56855.22;5034722;28;20025;-86
2023/07/05 00:48:45;;;;;;;5.40;3.55;;;16.90;99.90;;;-144.05;78.08;56880.69;5034593;28;20433;-87
2023/07/05 00:51:59;;;;;;;6.90;3.80;;;17.00;99.90;;;-144.05;80.00;56838.22;5034724;28;20029;-88
2023/07/05 00:54:38;;;;;;;7.57;3.72;;;16.90;99.90;;;-144.05;81.08;56872.19;5034672;28;20116;-87
2023/07/05 00:57:37;;;;;;;5.22;3.70;;;16.90;99.90;;;-144.05;83.15;56865.81;5034384;28;20032;-87
2023/07/05 01:00:16;;;;;;;5.63;3.75;;;16.80;99.90;;;-144.05;84.15;56855.22;5034270;28;20029;-87
2023/07/05 01:03:01;;;;;;;10.82;3.90;;;16.80;99.90;;;-144.05;84.38;56831.84;5018710;28;20037;-86
2023/07/05 01:05:30;;;;;;;5.00;3.25;;;16.70;99.90;;;-144.05;86.00;56821.22;5052723;28;20035;-87
2023/07/05 01:08:04;;;;;;;5.05;3.75;;;16.70;99.90;;;-144.05;86.80;56836.09;5034751;28;20039;-87
2023/07/05 01:10:45;;;;;;;;;;;;;;;;;;;;;
2023/07/05 01:13:52;;;;;;;;;;;;;;;;;;;;;
2023/07/05 01:18:16;;;;;;;;;;;;;;;;;;;;;
2023/07/05 01:29:23;;;;;;;;;;;;;;;;;;;;;
2023/07/05 01:35:52;;;;;;;8.73;4.32;;;16.30;99.90;;;-144.05;90.82;56842.47;5042224;28;20106;-85
2023/07/05 01:38:23;;;;;;;9.63;4.15;;;16.30;99.90;;;-144.05;91.24;56848.84;5038537;28;20580;-85
2023/07/05 01:41:24;;;;;;;;;;;;;;;;;;;;;
2023/07/05 01:44:06;;;;;;;;;;;;;;;;;;;;;
2023/07/05 01:47:25;;;;;;;9.07;3.40;;;16.30;99.90;;;-144.05;92.55;56861.56;5056509;28;20104;-86
2023/07/05 01:50:17;;;;;;;5.55;3.67;;;16.30;99.90;;;-144.05;92.11;56870.06;5025013;28;20126;-89
2023/07/05 01:53:09;;;;;;;5.15;3.63;;;16.30;99.90;;;-144.05;92.10;56857.34;5039201;28;20127;-87
2023/07/05 01:55:52;;;;;;;8.60;3.92;;;16.30;99.90;;;-144.05;92.29;56889.19;5040277;28;20033;-87
2023/07/05 01:58:50;;;;;;;12.95;4.10;;;16.40;99.90;;;-144.05;92.05;56842.47;5051760;28;20039;-81
2023/07/05 02:01:23;;;;;;;6.53;3.53;;;16.30;99.90;;;-144.05;92.23;56859.47;5070355;28;20044;-91
2023/07/05 02:04:12;;;;;;;7.25;4.13;;;16.30;99.90;;;-144.05;92.26;56859.47;5069784;28;20508;-92
2023/07/05 02:06:53;;;;;;;;;;;;;;;;;;;;;
2023/07/05 02:09:30;;;;;;;5.18;3.28;;;16.30;99.90;;;-144.05;92.82;56853.09;5055315;28;20354;-90
2023/07/05 02:11:56;;;;;;;5.53;3.30;;;16.40;99.90;;;-144.05;92.36;56857.34;5037317;28;20124;-90
2023/07/05 02:14:30;;;;;;;6.28;3.25;;;16.40;99.90;;;-144.05;92.03;56840.34;5037406;28;20557;-89
2023/07/05 02:17:03;;;;;;;5.00;3.38;;;16.40;99.90;;;-144.05;92.84;56848.84;5037955;28;20033;-89
2023/07/05 02:19:52;;;;;;;8.07;3.90;;;16.40;99.90;;;-144.05;92.74;56850.97;5038152;28;20029;-89
2023/07/05 02:22:19;;;;;;;6.72;3.50;;;16.40;99.90;;;-144.05;92.07;56840.34;5037480;28;20029;-87
2023/07/05 02:24:50;;;;;;;6.90;3.00;;;16.40;99.90;;;-144.05;92.28;56836.09;5040728;28;20033;-80
2023/07/05 02:27:46;;;;;;;;;;;;;;;;;;;;;
2023/07/05 02:30:22;;;;;;;6.10;3.20;;;16.50;99.90;;;-144.05;92.21;56833.97;5058987;28;20128;-82
2023/07/05 02:32:48;;;;;;;5.07;3.05;;;16.50;99.90;;;-144.05;92.08;56859.47;5041539;28;20032;-83
2023/07/05 02:35:28;;;;;;;4.32;2.90;;;16.50;99.90;;;-144.05;92.00;56872.19;5040472;28;20512;-85
2023/07/05 02:38:27;;;;;;;3.92;2.55;;;16.50;99.90;;;-144.05;92.51;56833.97;5040601;28;20039;-83
2023/07/05 02:41:09;;;;;;;4.47;2.65;;;16.60;99.90;;;-144.05;92.00;56853.09;5041520;28;20074;-89
2023/07/05 02:43:41;;;;;;;5.00;2.88;;;16.60;99.90;;;-144.05;91.99;56855.22;5041960;28;20025;-84
2023/07/05 02:46:07;;;;;;;5.75;2.50;;;16.60;99.90;;;-144.05;92.24;56840.34;5042371;28;20070;-85
2023/07/05 02:49:12;;;;;;;2.67;2.25;;;16.70;99.90;;;-144.05;91.38;56857.34;5042557;28;20494;-84
2023/07/05 02:52:04;;;;;;;4.28;2.60;;;16.70;99.90;;;-144.05;91.61;56850.97;5041793;28;20062;-86
2023/07/05 02:55:01;;;;;;;4.25;2.63;;;16.70;99.90;;;-144.05;91.54;56853.09;5044072;28;20040;-84
2023/07/05 02:58:11;;;;;;;5.32;2.60;;;16.70;99.90;;;-144.05;92.08;56861.56;5061362;28;20047;-83
2023/07/05 03:02:00;;;;;;;6.55;2.55;;;16.70;99.90;;;-144.05;92.31;56836.09;5056278;28;20040;-90
2023/07/05 03:04:28;;;;;;;4.75;2.70;;;16.70;99.90;;;-144.05;93.06;56857.34;5037388;28;20048;-89
2023/07/05 03:08:11;;;;;;;;;;;;;;;;;;;;;
2023/07/05 03:10:42;;;;;;;5.50;2.72;;;16.70;99.90;;;-144.05;93.35;56853.09;5071754;28;20063;-90
2023/07/05 03:13:08;;;;;;;4.72;2.30;;;16.70;99.90;;;-144.05;94.81;56853.09;5053997;28;20557;-91
2023/07/05 03:15:34;;;;;;;7.30;2.47;;;16.60;99.90;;;-144.05;94.14;56850.97;5035685;28;20123;-90
2023/07/05 03:18:00;;;;;;;3.70;2.78;;;16.60;99.90;;;-144.05;93.92;56840.34;5035915;28;20028;-89
2023/07/05 03:20:26;;;;;;;4.10;2.75;;;16.60;99.90;;;-144.05;94.44;56861.56;5035809;28;20049;-90
2023/07/05 03:22:52;;;;;;;4.10;2.47;;;16.70;99.90;;;-144.05;95.00;56867.94;5053637;28;20056;-90
2023/07/05 03:25:18;;;;;;;5.68;2.65;;;16.60;99.90;;;-144.05;95.32;56853.09;5035572;28;20491;-88
2023/07/05 03:27:44;;;;;;;5.85;2.88;;;16.60;99.90;;;-144.05;95.11;56842.47;5035734;28;20397;-86
2023/07/05 03:30:11;;;;;;;4.35;2.90;;;16.60;99.90;;;-144.05;94.10;56870.06;5035757;28;20472;-87
2023/07/05 03:32:38;;;;;;;6.97;2.70;;;16.60;99.90;;;-144.05;95.20;56853.09;5035844;28;20129;-89
2023/07/05 03:35:04;;;;;;;3.60;2.50;;;16.70;99.90;;;-144.05;94.83;56882.81;5035328;28;20033;-88
2023/07/05 03:37:40;;;;;;;3.03;2.63;;;16.60;99.90;;;-144.05;94.10;56867.94;5035597;28;20059;-90
2023/07/05 03:40:14;;;;;;;4.13;2.72;;;16.60;99.90;;;-144.05;94.71;56865.81;5053846;28;20029;-89
2023/07/05 03:42:40;;;;;;;4.93;2.63;;;16.70;99.90;;;-144.05;93.97;56853.09;5035351;28;20061;-86
2023/07/05 03:45:12;;;;;;;4.55;2.30;;;16.60;99.90;;;-144.05;94.26;56859.47;5035803;28;20025;-87
2023/07/05 03:47:40;;;;;;;4.00;2.30;;;16.70;99.90;;;-144.05;93.38;56857.34;5035174;28;20025;-88
2023/07/05 03:50:13;;;;;;;6.68;2.22;;;16.70;99.90;;;-144.05;93.81;56878.56;5053679;28;20074;-87
2023/07/05 03:52:59;;;;;;;4.97;2.20;;;16.70;99.90;;;-144.05;93.65;56855.22;5035727;28;20048;-89
2023/07/05 03:55:34;;;;;;;3.90;2.10;;;16.70;99.90;;;-144.05;93.20;56857.34;5053306;28;20029;-88
2023/07/05 03:58:13;;;;;;;5.35;2.58;;;16.60;99.90;;;-144.05;93.00;56840.34;5036099;28;20044;-91
2023/07/05 04:00:41;;;;;;;3.42;1.83;;;16.70;99.90;;;-144.05;92.42;56844.59;5035097;28;20082;-89
2023/07/05 04:03:07;;;;;;;4.10;2.40;;;16.60;99.90;;;-144.05;91.03;56846.72;5051845;28;20167;-89
2023/07/05 04:05:37;;;;;;;2.88;1.95;;;16.60;99.90;;;-144.05;89.95;56867.94;5035511;28;20024;-89
2023/07/05 04:08:03;;;;;;;2.58;1.77;;;16.60;99.90;;;-144.05;86.92;56870.06;5035199;28;20108;-86
2023/07/05 04:10:32;;;;;;;2.83;1.88;;;16.60;99.90;;;-144.05;86.07;56867.94;5034782;28;20445;-88
2023/07/05 04:12:58;;;;;;;3.15;1.50;;;16.50;99.90;;;-144.05;85.59;56863.69;5035196;28;20029;-88
2023/07/05 04:15:24;;;;;;;2.38;1.40;;;16.40;99.90;;;-144.05;82.76;56853.09;5035066;28;20032;-88
2023/07/05 04:17:49;;;;;;;3.50;2.08;;;16.30;99.90;;;-144.05;79.04;56887.06;5035321;28;20508;-90
2023/07/05 04:20:15;;;;;;;1.90;1.30;;;15.90;99.90;;;-144.05;77.29;56874.31;5049454;28;20037;-80
2023/07/05 04:22:45;;;;;;;3.78;1.70;;;15.70;99.90;;;-144.05;77.33;56895.56;5052518;28;20041;-87
2023/07/05 04:25:11;;;;;;;2.75;1.70;;;15.50;99.90;;;-144.05;76.25;56887.06;5035752;28;20031;-88
2023/07/05 04:27:37;;;;;;;2.35;1.60;;;15.30;99.90;;;-144.05;76.89;56863.69;5035403;28;20120;-88
2023/07/05 04:30:05;;;;;;;2.50;1.50;;;15.10;99.90;;;-144.05;77.44;56857.34;5035462;28;20092;-89
2023/07/05 04:32:31;;;;;;;2.53;1.58;;;15.00;99.90;;;-144.05;78.28;56865.81;5038333;28;20035;-90
2023/07/05 04:34:57;;;;;;;3.58;1.85;;;14.90;99.90;;;-144.05;78.56;56842.47;5038006;28;20082;-87
2023/07/05 04:37:24;;;;;;;2.28;1.60;;;14.90;99.90;;;-144.05;77.76;56865.81;5037607;28;20121;-90
2023/07/05 04:39:50;;;;;;;5.93;1.90;;;14.70;99.90;;;-144.05;77.63;56848.84;5037486;28;20481;-88
2023/07/05 04:42:15;;;;;;;2.72;1.45;;;14.70;99.90;;;-144.05;78.18;56884.94;5037982;28;20031;-85
2023/07/05 04:44:41;;;;;;;3.17;1.92;;;14.60;99.90;;;-144.05;78.65;56865.81;5038145;28;20036;-89
2023/07/05 04:47:08;;;;;;;3.55;1.90;;;14.50;99.90;;;-144.05;78.51;56857.34;5038656;28;20057;-86
2023/07/05 04:49:46;;;;;;;;;;;;;;;;;;;;;
2023/07/05 04:52:12;;;;;;;5.43;2.10;;;14.40;99.90;;;-144.05;77.68;56861.56;5057331;28;20080;-87
2023/07/05 04:54:39;;;;;;;4.03;1.70;;;14.30;99.90;;;-144.05;77.75;56880.69;5038985;28;20071;-87
2023/07/05 04:57:05;;;;;;;6.15;1.52;;;14.30;99.90;;;-144.05;78.05;56861.56;5039406;28;20028;-88
2023/07/05 04:59:34;;;;;;;2.92;1.60;;;14.30;99.90;;;-144.05;78.31;56853.09;5039322;28;20129;-88
2023/07/05 05:02:05;;;;;;;7.13;1.90;;;14.20;99.90;;;-144.05;78.55;56857.34;5055574;28;20033;-84
2023/07/05 05:04:33;;;;;;;3.38;2.05;;;14.20;99.90;;;-144.05;78.47;56882.81;5076685;28;20017;-79
2023/07/05 05:07:05;;;;;;;4.25;2.28;;;14.10;99.90;;;-144.05;78.82;56848.84;5058958;28;20036;-80
2023/07/05 05:09:33;;;;;;;3.42;2.35;;;14.00;99.90;;;-144.05;78.77;56861.56;5059533;28;20025;-81
2023/07/05 05:11:59;;;;;;;5.90;2.00;;;14.10;99.90;;;-144.05;78.49;56870.06;5045562;28;20080;-87
2023/07/05 05:14:25;;;;;;;4.13;2.30;;;14.20;99.90;;;-144.05;77.55;56891.31;5036614;28;20022;-85
2023/07/05 05:16:51;;;;;;;4.25;2.33;;;14.10;99.90;;;-144.05;77.51;56863.69;5036905;28;20029;-86
2023/07/05 05:19:21;;;;;;;5.90;2.40;;;14.10;99.90;;;-144.05;77.38;56846.72;5037193;28;20056;-89
2023/07/05 05:21:49;;;;;;;4.05;2.40;;;14.20;99.90;;;-144.05;74.54;56878.56;5055398;28;20453;-89
2023/07/05 05:24:15;;;;;;;5.40;2.88;;;14.50;99.90;;;-144.05;71.99;56870.06;5037227;28;20025;-89
2023/07/05 05:26:42;;;;;;;4.25;2.80;;;14.70;99.90;;;-144.05;71.08;56857.34;5054167;28;20096;-89
2023/07/05 05:29:11;;;;;;;5.68;2.65;;;14.80;99.90;;;-144.05;69.70;56861.56;5036225;28;20025;-89
2023/07/05 05:31:37;;;;;;;6.53;3.05;;;14.80;99.90;;;-144.05;69.95;56865.81;5041385;28;20013;-89
2023/07/05 05:34:03;;;;;;;9.38;3.95;;;14.80;99.90;;;-144.05;70.07;56859.47;5050360;28;20035;-87
2023/07/05 05:36:29;;;;;;;6.65;3.20;;;14.60;99.90;;;-144.05;69.64;56863.69;5054368;28;20064;-88
2023/07/05 05:38:55;;;;;;;6.35;2.83;;;14.70;99.90;;;-144.05;68.69;56882.81;5054379;28;20047;-87
2023/07/05 05:41:22;;;;;;;7.80;3.33;;;15.00;99.90;;;-144.05;68.18;56850.97;5052619;28;20033;-87
2023/07/05 05:43:50;;;;;;;6.00;3.10;;;15.10;99.90;;;-144.05;68.69;56865.81;5041612;28;20088;-87
2023/07/05 05:46:16;;;;;;;4.28;3.00;;;15.20;99.90;;;-144.05;67.03;56844.59;5039892;28;20029;-84
2023/07/05 05:48:42;;;;;;;5.72;2.80;;;15.30;99.90;;;-144.05;67.70;56861.56;5039769;28;20033;-87
2023/07/05 05:51:09;;;;;;;5.43;2.72;;;15.40;99.90;;;-144.05;67.64;56833.97;5056040;28;20060;-87
2023/07/05 05:53:35;;;;;;;4.05;2.35;;;15.60;99.90;;;-144.05;66.48;56859.47;5037401;28;20029;-89
2023/07/05 05:56:01;;;;;;;4.72;2.55;;;15.40;99.90;;;-144.05;65.97;56865.81;5038116;28;20040;-87
2023/07/05 05:58:27;;;;;;;4.82;2.58;;;15.50;99.90;;;-144.05;65.60;56859.47;5042748;28;20032;-88
2023/07/05 06:00:53;;;;;;;6.78;3.22;;;15.60;99.90;;;-144.05;67.10;56857.34;5041937;28;20429;-89
2023/07/05 06:03:19;;;;;;;5.40;2.75;;;15.40;99.90;;;-144.05;67.45;56876.44;5041937;28;20025;-89
2023/07/05 06:05:45;;;;;;;5.45;2.97;;;15.30;99.90;;;-144.05;67.07;56844.59;5042302;28;20061;-89
2023/07/05 06:08:11;;;;;;;6.95;2.90;;;15.20;99.90;;;-144.05;67.10;56865.81;5041628;28;20495;-89
2023/07/05 06:10:37;;;;;;;4.15;2.63;;;15.10;99.90;;;-144.05;66.92;56857.34;5043017;28;20036;-88
2023/07/05 06:13:03;;;;;;;6.28;2.92;;;15.10;99.90;;;-144.05;66.57;56880.69;5050303;28;20032;-80
2023/07/05 06:15:28;;;;;;;5.25;3.30;;;15.20;99.90;;;-144.05;66.60;56880.69;5062853;28;20051;-86
2023/07/05 06:17:54;;;;;;;7.90;2.95;;;15.30;99.90;;;-144.05;65.66;56859.47;5062095;28;20060;-83
2023/07/05 06:20:23;;;;;;;4.60;2.25;;;15.30;99.90;;;-144.05;65.56;56840.34;5059090;28;20033;-88
2023/07/05 06:22:49;;;;;;;5.03;3.28;;;15.30;99.90;;;-144.05;66.94;56861.56;5043084;28;20382;-85
2023/07/05 06:25:15;;;;;;;4.75;2.70;;;15.20;99.90;;;-144.05;66.38;56865.81;5042813;28;20032;-86
2023/07/05 06:27:41;;;;;;;7.53;3.00;;;15.10;99.90;;;-144.05;65.50;56863.69;5042275;28;20116;-86
2023/07/05 06:30:08;;;;;;;9.02;2.70;;;15.20;99.90;;;-144.05;62.84;56887.06;5042109;28;20052;-85
2023/07/05 06:32:35;;;;;;;5.50;2.42;;;15.10;99.90;;;-144.05;62.94;56863.69;5042972;28;20033;-86
2023/07/05 06:35:01;;;;;;;5.45;3.00;;;15.10;99.90;;;-144.05;63.53;56857.34;5042185;28;20044;-87
2023/07/05 06:37:27;;;;;;;5.72;2.60;;;15.20;99.90;;;-144.05;63.03;56870.06;5060932;28;20029;-87
2023/07/05 06:39:53;;;;;;;4.30;3.05;;;15.10;99.90;;;-144.05;61.35;56859.47;5060443;28;20094;-88
2023/07/05 06:42:19;;;;;;;5.93;2.45;;;15.20;99.90;;;-144.05;62.30;56887.06;5042717;28;20710;-88
2023/07/05 06:44:45;;;;;;;5.47;2.13;;;15.00;99.90;;;-144.05;62.43;56874.31;5041788;28;20029;-86
2023/07/05 06:47:11;;;;;;;5.82;2.40;;;15.00;99.90;;;-144.05;62.96;56870.06;5041989;28;20055;-85
2023/07/05 06:49:36;;;;;;;5.10;2.75;;;15.00;99.90;;;-144.05;62.63;56863.69;5041886;28;20036;-85
2023/07/05 06:52:07;;;;;;;7.03;2.55;;;14.90;99.90;;;-144.05;63.40;56882.81;5060267;28;20059;-89
2023/07/05 06:54:38;;;;;;;6.55;2.80;;;15.00;99.90;;;-144.05;62.92;56859.47;5041454;28;20040;-89
2023/07/05 06:57:07;;;;;;;5.47;2.78;;;15.00;99.90;;;-144.05;62.13;56887.06;5042919;28;20025;-86
2023/07/05 06:59:33;;;;;;;9.38;2.72;;;15.10;99.90;;;-144.05;62.64;56842.47;5042172;28;20088;-87
2023/07/05 07:01:59;;;;;;;7.38;3.83;;;15.20;99.90;;;-144.05;62.14;56857.34;5042304;28;20469;-89
2023/07/05 07:04:25;;;;;;;4.88;2.58;;;15.20;99.90;;;-144.05;61.69;56872.19;5040840;28;20116;-87
2023/07/05 07:06:51;;;;;;;6.18;3.15;;;15.50;99.90;;;-144.05;61.21;56887.06;5042659;28;20031;-88
2023/07/05 07:09:18;;;;;;;5.28;2.60;;;15.60;99.90;;;-144.05;61.50;56870.06;5041965;28;20064;-88
2023/07/05 07:11:44;;;;;;;5.35;2.85;;;15.70;99.90;;;-144.05;61.08;56853.09;5043108;28;20129;-88
2023/07/05 07:14:09;;;;;;;4.75;2.70;;;15.60;99.90;;;-144.05;60.18;56846.72;5059524;28;20065;-90
2023/07/05 07:16:35;;;;;;;6.43;2.15;;;15.70;99.90;;;-144.05;58.82;56865.81;5042869;28;20027;-88
2023/07/05 07:19:01;;;;;;;6.32;2.40;;;15.90;99.90;;;-144.05;58.23;56872.19;5041856;28;20025;-85
2023/07/05 07:21:29;;;;;;;4.68;2.40;;;16.00;99.90;;;-144.05;58.38;56891.31;5041576;28;20033;-85
2023/07/05 07:23:55;;;;;;;5.85;2.22;;;16.40;99.90;;;-144.05;56.84;56863.69;5041943;28;20029;-86
2023/07/05 07:26:24;;;;;;;4.43;2.50;;;16.80;99.90;;;-144.05;55.15;56850.97;5041588;28;20028;-86
2023/07/05 07:28:55;;;;;;;12.85;2.60;;;17.10;99.90;;;-144.05;55.22;56853.09;5042779;28;20033;-87
2023/07/05 07:31:30;;;;;;;6.45;2.25;;;17.10;99.90;;;-144.05;54.31;56874.31;5042567;28;20045;-86
2023/07/05 07:34:00;;;;;;;5.90;2.50;;;17.10;99.90;;;-144.05;55.89;56872.19;5043086;28;20109;-88
2023/07/05 07:36:30;;;;;;;5.70;2.15;;;16.60;99.90;;;-144.05;57.04;56889.19;5041963;28;20029;-88
2023/07/05 07:38:57;;;;;;;4.50;2.17;;;16.30;99.90;;;-144.05;58.14;56878.56;5063024;28;20025;-87
2023/07/05 07:41:37;;;;;;;4.20;1.60;;;15.90;99.90;;;-144.05;58.38;56827.59;5044879;28;20025;-86
2023/07/05 07:44:09;;;;;;;6.70;2.63;;;15.70;99.90;;;-144.05;59.42;56855.22;5044024;28;20051;-85
2023/07/05 07:46:38;;;;;;;3.72;1.80;;;15.60;99.90;;;-144.05;59.13;56882.81;5043265;28;20025;-86
2023/07/05 07:49:08;;;;;;;7.22;2.63;;;15.60;99.90;;;-144.05;59.17;56878.56;5043587;28;20025;-87
2023/07/05 07:51:39;;;;;;;5.03;1.77;;;15.70;99.90;;;-144.05;58.67;56867.94;5040412;28;20119;-87
2023/07/05 07:56:32;;;;;;;4.72;2.00;;;15.70;99.90;;;-144.05;58.25;56870.06;5093774;23;20059;-85
2023/07/05 07:59:01;;;;;;;6.53;2.90;;;15.70;99.90;;;-144.05;59.61;56865.81;5074732;28;20047;-85
2023/07/05 08:01:32;;;;;;;3.78;2.20;;;15.70;99.90;;;-144.05;59.32;56861.56;5075147;28;20025;-85
2023/07/05 08:04:02;;;;;;;5.93;2.03;;;15.70;99.90;;;-144.05;58.50;56897.69;5075993;28;20070;-84
2023/07/05 08:06:49;;;;;;;4.43;1.70;;;15.50;99.90;;;-144.05;58.58;56891.31;5074503;28;20115;-84
2023/07/05 08:09:28;;;;;;;;;;;15.30;99.90;;;-144.05;59.11;56874.31;5076796;28;20025;-83
2023/07/05 08:11:56;;;;;;;6.70;2.13;;;15.30;99.90;;;-144.05;59.60;56878.56;5057098;28;20363;-84
2023/07/05 08:14:22;;;;;;;7.00;1.70;;;15.30;99.90;;;-144.05;59.46;56882.81;5056687;28;20036;-83
2023/07/05 08:16:48;;;;;;;3.95;1.65;;;15.30;99.90;;;-144.05;59.93;56878.56;5057481;28;20025;-85
2023/07/05 08:19:16;;;;;;;8.90;2.03;;;15.30;99.90;;;-144.05;59.84;56857.34;5075504;28;20029;-84
2023/07/05 08:21:45;;;;;;;5.65;1.88;;;15.40;99.90;;;-144.05;59.71;56887.06;5074714;28;20024;-83
2023/07/05 08:24:13;;;;;;;3.90;1.40;;;15.60;99.90;;;-144.05;59.19;56857.34;5073943;28;20020;-83
2023/07/05 08:26:40;;;;;;;5.28;2.55;;;15.80;99.90;;;-144.05;59.65;56878.56;5072955;28;20028;-83
2023/07/05 08:29:08;;;;;;;5.45;2.45;;;15.90;99.90;;;-144.05;60.64;56870.06;5056320;28;20030;-86
2023/07/05 08:31:35;;;;;;;3.00;1.95;;;15.80;99.90;;;-144.05;60.62;56880.69;5073308;28;20119;-84
2023/07/05 08:34:01;;;;;;;7.97;2.63;;;15.80;99.90;;;-144.05;62.14;56893.44;5072761;28;20550;-84
2023/07/05 08:36:37;;;;;;;3.92;1.60;;;15.70;99.90;;;-144.05;62.46;56872.19;5074028;28;20032;-82
2023/07/05 08:39:07;;;;;;;4.65;2.40;;;15.80;99.90;;;-144.05;62.11;56848.84;5075058;28;20028;-83
2023/07/05 08:41:41;;;;;;;8.68;2.78;;;16.00;99.90;;;-144.05;63.88;56874.31;5074956;28;20116;-84
2023/07/05 08:44:42;;;;;;;6.68;2.55;;;15.80;99.90;;;-144.05;64.35;56857.34;5074730;28;20055;-85
2023/07/05 08:47:07;;;;;;;7.55;2.33;;;15.60;99.90;;;-144.05;63.86;56870.06;5056862;28;20055;-85
2023/07/05 08:49:56;;;;;;;5.97;2.28;;;15.40;99.90;;;-144.05;65.03;56874.31;5056541;28;20437;-84
2023/07/05 08:52:36;;;;;;;6.00;2.72;;;15.20;99.90;;;-144.05;64.27;56859.47;5074208;28;20460;-85
2023/07/05 08:55:12;;;;;;;7.38;2.40;;;15.20;99.90;;;-144.05;64.02;56874.31;5073284;28;20423;-85
2023/07/05 08:57:52;;;;;;;4.75;1.73;;;15.10;99.90;;;-144.05;64.85;56876.44;5073179;28;20089;-85
2023/07/05 09:00:56;;;;;;;4.45;2.28;;;15.00;99.90;;;-144.05;65.29;56870.06;5074668;28;20036;-84
2023/07/05 09:03:28;;;;;;;6.72;2.80;;;15.00;99.90;;;-144.05;65.60;56876.44;5073997;28;20041;-87
2023/07/05 09:06:24;;;;;;;4.18;1.92;;;14.90;99.90;;;-144.05;64.57;56870.06;5073878;28;20066;-86
2023/07/05 09:09:08;;;;;;;2.50;1.80;;;15.00;99.90;;;-144.05;62.74;56859.47;5058003;28;20032;-85
2023/07/05 09:11:58;;;;;;;4.60;1.75;;;15.00;99.90;;;-144.05;62.84;56872.19;5056935;28;20282;-83
2023/07/05 09:15:11;;;;;;;5.40;1.60;;;15.00;99.90;;;-144.05;62.84;56859.47;5085010;28;20025;-86
2023/07/05 09:18:17;;;;;;;5.15;2.63;;;15.10;99.90;;;-144.05;62.28;56870.06;5075414;28;20024;-83
2023/07/05 09:21:17;;;;;;;4.38;2.40;;;15.00;99.90;;;-144.05;63.01;56887.06;5056150;28;20537;-85
2023/07/05 09:24:05;;;;;;;5.70;1.40;;;15.00;99.90;;;-144.05;62.59;56863.69;5073543;28;20047;-83
2023/07/05 09:26:47;;;;;;;4.97;1.98;;;15.00;99.90;;;-144.05;62.74;56887.06;5084350;28;20028;-82
2023/07/05 09:29:50;;;;;;;5.43;2.10;;;15.10;99.90;;;-144.05;62.15;56857.34;5076988;28;20024;-83
2023/07/05 09:32:31;;;;;;;5.07;1.58;;;15.10;99.90;;;-144.05;60.02;56878.56;5078871;28;20035;-84
2023/07/05 09:35:00;;;;;;;6.97;2.33;;;15.40;99.90;;;-144.05;59.66;56865.81;5080588;28;20583;-86
2023/07/05 09:37:33;;;;;;;6.43;2.17;;;15.80;99.90;;;-144.05;57.60;56880.69;5080602;28;20038;-83
2023/07/05 09:40:23;;;;;;;7.97;1.85;;;16.10;99.90;;;-144.05;57.23;56861.56;5097751;28;20089;-83
2023/07/05 09:42:58;;;;;;;6.07;2.00;;;16.40;99.90;;;-144.05;56.81;56884.94;5097495;28;20040;-82
2023/07/05 09:45:26;;;;;;;5.68;2.05;;;16.60;99.90;;;-144.05;56.60;56872.19;5079959;28;20028;-83
2023/07/05 09:48:10;;;;;;;5.85;1.80;;;17.10;99.90;;;-144.05;53.24;56880.69;5080317;28;20187;-84
2023/07/05 09:50:36;;;;;;;6.28;1.77;;;17.80;99.90;;;-144.05;51.06;56889.19;5097606;28;20028;-85
2023/07/05 09:53:37;;;;;;;6.15;1.83;;;18.30;99.90;;;-144.05;51.47;56876.44;5080274;28;20024;-83
2023/07/05 09:56:14;;;;;;;8.13;2.47;;;18.10;99.90;;;-144.05;51.54;56878.56;5080729;28;20043;-87
2023/07/05 09:58:48;;;;;;;5.15;1.88;;;18.30;99.90;;;-144.05;51.44;56872.19;5098680;28;20043;-84
2023/07/05 10:01:23;;;;;;;7.97;1.60;;;18.30;99.90;;;-144.05;50.90;56884.94;5079788;28;20024;-85
2023/07/05 10:04:02;;;;;;;7.72;2.10;;;18.50;99.90;;;-144.05;50.03;56867.94;5080456;28;20024;-87
2023/07/05 10:06:30;;;;;;;11.20;2.25;;;18.80;99.90;;;-144.05;49.53;56872.19;5098264;28;20024;-84
2023/07/05 10:09:13;;;;;;;5.90;1.83;;;19.00;99.90;;;-144.05;48.88;56884.94;5098272;28;20024;-84
2023/07/05 10:11:53;;;;;;;6.30;1.50;;;19.00;99.90;;;-144.05;48.68;56874.31;5080917;28;20032;-84
2023/07/05 10:14:32;;;;;;;7.65;1.70;;;18.80;99.90;;;-144.05;50.84;56893.44;5080664;28;20035;-85
2023/07/05 10:17:09;;;;;;;12.32;2.25;;;18.40;99.90;;;-144.05;50.25;56906.19;5099144;28;20047;-83
2023/07/05 10:19:47;;;;;;;5.00;2.20;;;18.30;99.90;;;-144.05;49.82;56893.44;5082582;28;20299;-83
2023/07/05 10:22:37;;;;;;;10.15;2.10;;;18.30;99.90;;;-144.05;50.72;56872.19;5095786;28;20126;-84
2023/07/05 10:25:20;;;;;;;6.68;1.95;;;18.00;99.90;;;-144.05;49.82;56878.56;5071628;28;20067;-85
2023/07/05 10:27:50;;;;;;;4.22;1.80;;;18.10;99.90;;;-144.05;49.06;56872.19;5081632;28;20024;-84
2023/07/05 10:30:21;;;;;;;5.35;1.65;;;18.10;99.90;;;-144.05;49.37;56895.56;5081434;28;20031;-82
2023/07/05 10:33:27;;;;;;;8.55;2.25;;;18.00;99.90;;;-144.05;50.17;56891.31;5079951;28;20628;-83
2023/07/05 10:36:08;;;;;;;11.43;1.98;;;17.80;99.90;;;-144.05;50.87;56880.69;5098968;28;20043;-83
2023/07/05 10:38:50;;;;;;;7.70;2.15;;;17.50;99.90;;;-144.05;50.62;56865.81;5096719;28;20395;-84
2023/07/05 10:41:36;;;;;;;8.65;2.05;;;17.60;99.90;;;-144.05;50.57;56865.81;5079996;28;20073;-83
2023/07/05 10:44:06;;;;;;;;;;;17.50;99.90;;;-144.05;50.27;56859.47;5097629;28;20020;-83
2023/07/05 10:46:37;;;;;;;11.90;1.70;;;17.70;99.90;;;-144.05;48.94;56878.56;5079621;28;20008;-84
2023/07/05 10:49:14;;;;;;;15.05;3.40;;;18.20;99.90;;;-144.05;48.97;56887.06;5079827;28;20039;-82
2023/07/05 10:51:50;;;;;;;10.90;2.58;;;18.40;99.90;;;-144.05;48.82;56901.94;5079304;28;20066;-83
2023/07/05 10:54:32;;;;;;;9.05;1.65;;;18.50;99.90;;;-144.05;47.93;56889.19;5078869;28;20020;-85
2023/07/05 10:57:15;;;;;;;9.48;1.77;;;19.10;99.90;;;-144.05;45.14;56878.56;5079160;28;20021;-83
2023/07/05 10:59:52;;;;;;;13.52;2.95;;;19.70;99.90;;;-144.05;45.48;56912.56;5097842;28;20024;-85
2023/07/05 11:02:43;;;;;;;10.15;1.73;;;19.50;99.90;;;-144.05;46.46;56910.44;5079787;28;20028;-83
2023/07/05 11:05:47;;;;;;;11.30;1.90;;;19.50;99.90;;;-144.05;44.65;56895.56;5079645;28;20051;-84
2023/07/05 11:08:26;;;;;;;10.25;1.90;;;19.70;99.90;;;-144.05;44.97;56906.19;5079329;28;20043;-84